createdAt,value
2022-12-24T00:00:05.843Z,2.80
2022-12-24T00:01:05.820Z,2.30
2022-12-24T00:02:05.910Z,2.10
2022-12-24T00:03:05.887Z,2.30
2022-12-24T00:04:05.761Z,2.10
2022-12-24T00:05:05.756Z,2.50
2022-12-24T00:06:05.776Z,2.30
2022-12-24T00:07:05.747Z,2.80
2022-12-24T00:08:05.755Z,2.60
2022-12-24T00:09:05.686Z,2.50
2022-12-24T00:10:05.695Z,2.50
2022-12-24T00:11:05.694Z,2.30
2022-12-24T00:12:05.679Z,1.90
2022-12-24T00:13:05.642Z,2.40
2022-12-24T00:14:05.627Z,2.50
2022-12-24T00:15:05.616Z,2.20
2022-12-24T00:16:05.624Z,2.90
2022-12-24T00:17:05.644Z,2.40
2022-12-24T00:18:05.608Z,2.70
2022-12-24T00:19:05.558Z,2.10
2022-12-24T00:20:05.537Z,2.70
2022-12-24T00:21:05.572Z,2.90
2022-12-24T00:22:05.545Z,2.60
2022-12-24T00:23:05.498Z,2.50
2022-12-24T00:24:05.492Z,2.70
2022-12-24T00:25:05.479Z,2.70
2022-12-24T00:26:05.483Z,2.30
2022-12-24T00:27:05.475Z,2.40
2022-12-24T00:28:05.430Z,2.80
2022-12-24T00:29:05.429Z,2.50
2022-12-24T00:30:05.419Z,2.70
2022-12-24T00:31:05.492Z,2.60
2022-12-24T00:32:05.409Z,2.70
2022-12-24T00:33:05.390Z,2.90
2022-12-24T00:34:05.362Z,2.70
2022-12-24T00:35:05.391Z,2.50
2022-12-24T00:36:05.331Z,2.50
2022-12-24T00:37:05.323Z,2.30
2022-12-24T00:38:05.311Z,2.60
2022-12-24T00:39:05.343Z,2.60
2022-12-24T00:40:05.288Z,2.60
2022-12-24T00:41:05.282Z,2.50
2022-12-24T00:42:05.255Z,2.90
2022-12-24T00:43:05.274Z,2.30
2022-12-24T00:44:05.253Z,3.00
2022-12-24T00:45:05.278Z,2.10
2022-12-24T00:46:05.258Z,2.30
2022-12-24T00:47:11.665Z,2.50
2022-12-24T00:48:06.174Z,2.90
2022-12-24T00:49:05.184Z,2.40
2022-12-24T00:50:05.184Z,2.40
2022-12-24T00:51:05.228Z,2.70
2022-12-24T00:52:05.141Z,2.60
2022-12-24T00:53:05.125Z,2.40
2022-12-24T00:54:05.122Z,2.80
2022-12-24T00:55:05.087Z,2.60
2022-12-24T00:56:05.097Z,2.40
2022-12-24T00:57:05.064Z,2.30
2022-12-24T00:58:05.054Z,2.90
2022-12-24T00:59:05.045Z,2.50
2022-12-24T01:00:05.026Z,2.90
2022-12-24T01:01:05.111Z,2.50
2022-12-24T01:02:05.114Z,3.10
2022-12-24T01:03:05.032Z,2.40
2022-12-24T01:04:04.993Z,2.80
2022-12-24T01:05:04.975Z,3.20
2022-12-24T01:06:04.944Z,2.30
2022-12-24T01:07:04.951Z,2.60
2022-12-24T01:08:04.914Z,2.70
2022-12-24T01:09:04.955Z,2.70
2022-12-24T01:10:04.896Z,2.70
2022-12-24T01:11:04.900Z,2.50
2022-12-24T01:12:04.866Z,2.60
2022-12-24T01:13:04.882Z,2.90
2022-12-24T01:14:04.854Z,3.20
2022-12-24T01:15:04.852Z,2.90
2022-12-24T01:16:04.851Z,2.80
2022-12-24T01:17:04.796Z,2.70
2022-12-24T01:18:04.806Z,2.80
2022-12-24T01:19:04.805Z,3.10
2022-12-24T01:20:04.762Z,2.90
2022-12-24T01:21:04.747Z,2.70
2022-12-24T01:22:04.743Z,3.10
2022-12-24T01:23:04.731Z,2.80
2022-12-24T01:24:04.708Z,2.50
2022-12-24T01:25:04.789Z,3.10
2022-12-24T01:26:04.683Z,2.90
2022-12-24T01:27:04.658Z,2.50
2022-12-24T01:28:04.680Z,2.70
2022-12-24T01:29:04.646Z,3.40
2022-12-24T01:30:04.652Z,3.10
2022-12-24T01:31:04.650Z,3.40
2022-12-24T01:32:04.603Z,2.80
2022-12-24T01:33:04.619Z,3.00
2022-12-24T01:34:04.592Z,2.80
2022-12-24T01:35:14.276Z,2.60
2022-12-24T01:36:12.069Z,2.70
2022-12-24T01:37:04.525Z,3.10
2022-12-24T01:38:12.029Z,3.10
2022-12-24T01:39:12.013Z,2.80
2022-12-24T01:40:04.495Z,3.20
2022-12-24T01:41:11.997Z,2.90
2022-12-24T01:42:12.000Z,3.00
2022-12-24T01:43:04.469Z,3.20
2022-12-24T01:44:11.972Z,2.70
2022-12-24T01:45:13.655Z,3.40
2022-12-24T01:46:04.499Z,3.00
2022-12-24T01:47:04.397Z,3.00
2022-12-24T01:48:04.395Z,3.00
2022-12-24T01:49:04.383Z,3.00
2022-12-24T01:50:04.385Z,2.70
2022-12-24T01:51:04.371Z,3.10
2022-12-24T01:52:04.334Z,3.10
2022-12-24T01:53:04.329Z,3.00
2022-12-24T01:54:04.342Z,3.10
2022-12-24T01:55:04.321Z,2.90
2022-12-24T01:56:04.308Z,2.80
2022-12-24T01:57:04.276Z,3.30
2022-12-24T01:58:04.279Z,3.20
2022-12-24T01:59:04.240Z,3.30
2022-12-24T02:00:04.260Z,3.40
2022-12-24T02:01:04.268Z,3.20
2022-12-24T02:02:04.277Z,3.10
2022-12-24T02:03:04.370Z,3.10
2022-12-24T02:04:04.215Z,3.60
2022-12-24T02:05:04.190Z,3.60
2022-12-24T02:06:04.189Z,3.20
2022-12-24T02:07:04.147Z,2.90
2022-12-24T02:08:04.152Z,3.50
2022-12-24T02:09:04.124Z,3.10
2022-12-24T02:10:04.119Z,2.90
2022-12-24T02:11:04.100Z,3.20
2022-12-24T02:12:04.092Z,2.80
2022-12-24T02:13:04.080Z,3.30
2022-12-24T02:14:04.061Z,3.10
2022-12-24T02:15:04.071Z,3.00
2022-12-24T02:16:04.110Z,3.10
2022-12-24T02:17:04.014Z,3.50
2022-12-24T02:18:04.028Z,3.50
2022-12-24T02:19:03.990Z,3.40
2022-12-24T02:20:04.003Z,3.00
2022-12-24T02:21:03.984Z,3.10
2022-12-24T02:22:03.993Z,3.60
2022-12-24T02:23:03.941Z,3.40
2022-12-24T02:24:03.943Z,3.20
2022-12-24T02:25:03.933Z,3.00
2022-12-24T02:26:03.901Z,3.20
2022-12-24T02:27:03.884Z,2.70
2022-12-24T02:28:03.873Z,3.00
2022-12-24T02:29:03.859Z,3.50
2022-12-24T02:30:03.893Z,3.60
2022-12-24T02:31:03.895Z,3.00
2022-12-24T02:32:03.826Z,3.30
2022-12-24T02:33:03.847Z,2.90
2022-12-24T02:34:03.827Z,2.80
2022-12-24T02:35:03.799Z,3.30
2022-12-24T02:36:03.783Z,3.30
2022-12-24T02:37:03.747Z,3.00
2022-12-24T02:38:03.755Z,3.40
2022-12-24T02:39:03.734Z,3.30
2022-12-24T02:40:03.736Z,3.50
2022-12-24T02:41:03.741Z,3.10
2022-12-24T02:42:03.716Z,3.50
2022-12-24T02:43:03.682Z,3.80
2022-12-24T02:44:03.664Z,3.00
2022-12-24T02:45:03.652Z,2.80
2022-12-24T02:46:03.673Z,2.80
2022-12-24T02:47:03.685Z,3.60
2022-12-24T02:48:03.605Z,2.60
2022-12-24T02:49:03.620Z,3.30
2022-12-24T02:50:03.583Z,3.10
2022-12-24T02:51:03.606Z,2.90
2022-12-24T02:52:03.576Z,3.30
2022-12-24T02:53:03.556Z,3.20
2022-12-24T02:54:03.524Z,3.30
2022-12-24T02:55:03.530Z,3.30
2022-12-24T02:56:03.545Z,3.50
2022-12-24T02:57:03.497Z,3.10
2022-12-24T02:58:03.517Z,2.70
2022-12-24T02:59:03.470Z,3.20
2022-12-24T03:00:03.463Z,3.30
2022-12-24T03:01:03.580Z,3.80
2022-12-24T03:02:03.533Z,2.90
2022-12-24T03:03:03.612Z,3.00
2022-12-24T03:04:03.445Z,3.50
2022-12-24T03:05:03.401Z,3.30
2022-12-24T03:06:03.396Z,2.90
2022-12-24T03:07:03.380Z,2.80
2022-12-24T03:08:03.368Z,3.10
2022-12-24T03:09:03.352Z,3.20
2022-12-24T03:10:03.332Z,3.10
2022-12-24T03:11:03.328Z,3.80
2022-12-24T03:12:03.306Z,3.20
2022-12-24T03:13:03.303Z,3.20
2022-12-24T03:14:03.316Z,3.00
2022-12-24T03:15:03.269Z,3.60
2022-12-24T03:16:03.286Z,3.50
2022-12-24T03:17:03.282Z,2.90
2022-12-24T03:18:03.281Z,3.40
2022-12-24T03:19:03.237Z,2.60
2022-12-24T03:20:03.253Z,3.80
2022-12-24T03:21:03.211Z,3.40
2022-12-24T03:22:03.186Z,2.50
2022-12-24T03:23:03.206Z,3.30
2022-12-24T03:24:03.181Z,2.70
2022-12-24T03:25:03.150Z,3.20
2022-12-24T03:26:03.135Z,3.50
2022-12-24T03:27:03.106Z,3.20
2022-12-24T03:28:03.099Z,2.90
2022-12-24T03:29:03.078Z,3.30
2022-12-24T03:30:03.097Z,3.30
2022-12-24T03:31:03.139Z,3.10
2022-12-24T03:32:03.106Z,3.10
2022-12-24T03:33:03.052Z,2.90
2022-12-24T03:34:03.066Z,3.30
2022-12-24T03:35:03.021Z,3.40
2022-12-24T03:36:03.009Z,3.70
2022-12-24T03:37:03.002Z,3.30
2022-12-24T03:38:02.988Z,3.30
2022-12-24T03:39:02.986Z,2.90
2022-12-24T03:40:03.049Z,2.60
2022-12-24T03:41:02.954Z,3.20
2022-12-24T03:42:02.912Z,3.00
2022-12-24T03:43:02.902Z,3.20
2022-12-24T03:44:02.928Z,2.90
2022-12-24T03:45:02.913Z,3.10
2022-12-24T03:46:02.962Z,3.10
2022-12-24T03:47:02.877Z,3.40
2022-12-24T03:48:02.834Z,3.10
2022-12-24T03:49:02.845Z,2.70
2022-12-24T03:50:02.843Z,3.30
2022-12-24T04:03:17.564Z,3.70
2022-12-24T04:04:17.467Z,3.40
2022-12-24T04:05:17.467Z,3.20
2022-12-24T04:06:17.443Z,3.30
2022-12-24T04:07:17.428Z,3.50
2022-12-24T04:08:17.415Z,3.40
2022-12-24T04:09:17.424Z,3.30
2022-12-24T04:10:17.407Z,3.20
2022-12-24T04:11:17.391Z,3.30
2022-12-24T04:12:17.392Z,3.30
2022-12-24T04:13:17.359Z,2.70
2022-12-24T04:14:17.351Z,2.90
2022-12-24T04:15:17.348Z,3.00
2022-12-24T04:16:17.419Z,2.60
2022-12-24T04:17:24.872Z,2.70
2022-12-24T04:18:17.286Z,3.00
2022-12-24T04:19:17.274Z,2.90
2022-12-24T04:20:17.283Z,2.80
2022-12-24T04:21:17.257Z,2.50
2022-12-24T04:22:17.247Z,3.10
2022-12-24T04:23:17.235Z,3.20
2022-12-24T04:24:17.213Z,3.20
2022-12-24T04:25:17.223Z,3.20
2022-12-24T04:26:17.190Z,3.30
2022-12-24T04:27:17.180Z,2.90
2022-12-24T04:28:17.161Z,2.80
2022-12-24T04:29:17.163Z,3.10
2022-12-24T04:30:17.158Z,3.10
2022-12-24T04:31:17.138Z,2.90
2022-12-24T04:32:17.224Z,2.90
2022-12-24T04:33:17.116Z,2.90
2022-12-24T04:34:17.072Z,2.70
2022-12-24T04:35:17.082Z,2.60
2022-12-24T04:36:17.203Z,3.00
2022-12-24T04:37:17.041Z,3.20
2022-12-24T04:38:17.072Z,3.40
2022-12-24T04:39:17.031Z,3.20
2022-12-24T04:40:17.007Z,3.40
2022-12-24T04:41:23.227Z,3.30
2022-12-24T04:42:17.964Z,3.30
2022-12-24T04:43:17.010Z,3.30
2022-12-24T04:44:16.979Z,3.20
2022-12-24T04:45:16.994Z,3.30
2022-12-24T04:46:17.046Z,3.20
2022-12-24T04:47:16.951Z,3.40
2022-12-24T04:48:16.928Z,3.20
2022-12-24T04:49:16.890Z,3.80
2022-12-24T04:50:16.870Z,3.30
2022-12-24T04:51:16.890Z,3.00
2022-12-24T04:52:16.831Z,2.90
2022-12-24T04:53:16.844Z,3.20
2022-12-24T04:54:16.801Z,3.10
2022-12-24T04:55:16.831Z,3.10
2022-12-24T04:56:16.795Z,2.80
2022-12-24T04:57:16.787Z,3.40
2022-12-24T04:58:16.756Z,2.90
2022-12-24T04:59:16.762Z,2.90
2022-12-24T05:00:16.752Z,2.70
2022-12-24T05:01:16.822Z,3.20
2022-12-24T05:02:16.819Z,3.50
2022-12-24T05:03:16.757Z,2.90
2022-12-24T05:04:16.671Z,3.00
2022-12-24T05:05:16.673Z,2.80
2022-12-24T05:06:16.662Z,3.00
2022-12-24T05:07:16.635Z,3.40
2022-12-24T05:08:16.630Z,3.30
2022-12-24T05:09:16.636Z,3.10
2022-12-24T05:10:16.636Z,3.20
2022-12-24T05:11:16.585Z,3.50
2022-12-24T05:12:16.679Z,2.60
2022-12-24T05:13:16.572Z,2.80
2022-12-24T05:14:16.549Z,3.30
2022-12-24T05:15:16.553Z,3.00
2022-12-24T05:16:16.569Z,2.90
2022-12-24T05:17:16.603Z,3.30
2022-12-24T05:18:16.502Z,3.20
2022-12-24T05:19:16.501Z,3.20
2022-12-24T05:20:16.498Z,2.80
2022-12-24T05:21:16.464Z,2.90
2022-12-24T05:22:16.469Z,3.00
2022-12-24T05:23:16.433Z,4.20
2022-12-24T05:24:16.416Z,3.20
2022-12-24T05:25:16.457Z,3.50
2022-12-24T05:26:16.394Z,3.20
2022-12-24T05:27:16.387Z,2.70
2022-12-24T05:28:16.396Z,3.90
2022-12-24T05:29:16.361Z,3.00
2022-12-24T05:30:16.340Z,3.10
2022-12-24T05:31:16.422Z,3.50
2022-12-24T05:32:16.334Z,3.00
2022-12-24T05:33:16.307Z,3.10
2022-12-24T05:34:16.312Z,2.50
2022-12-24T05:35:16.295Z,4.00
2022-12-24T05:36:16.288Z,3.30
2022-12-24T05:37:16.248Z,3.10
2022-12-24T05:38:16.238Z,3.10
2022-12-24T05:39:16.445Z,3.10
2022-12-24T05:40:16.222Z,2.70
2022-12-24T05:41:16.216Z,2.70
2022-12-24T05:42:16.184Z,2.70
2022-12-24T05:43:16.179Z,2.50
2022-12-24T05:44:16.349Z,2.90
2022-12-24T05:45:16.155Z,3.60
2022-12-24T05:46:16.186Z,2.70
2022-12-24T05:47:16.122Z,2.90
2022-12-24T05:48:16.098Z,3.30
2022-12-24T05:49:16.130Z,3.20
2022-12-24T05:50:16.097Z,3.00
2022-12-24T05:51:16.065Z,2.70
2022-12-24T05:52:16.061Z,3.00
2022-12-24T05:53:16.051Z,3.00
2022-12-24T05:54:16.031Z,2.90
2022-12-24T05:55:16.020Z,3.20
2022-12-24T05:56:16.038Z,3.00
2022-12-24T05:57:15.997Z,3.70
2022-12-24T05:58:16.011Z,2.90
2022-12-24T05:59:15.970Z,3.20
2022-12-24T06:00:15.966Z,3.00
2022-12-24T06:01:16.029Z,2.50
2022-12-24T06:02:16.002Z,2.80
2022-12-24T06:03:15.920Z,3.10
2022-12-24T06:04:16.064Z,3.20
2022-12-24T06:05:15.877Z,3.00
2022-12-24T06:06:15.906Z,3.60
2022-12-24T06:07:15.910Z,3.40
2022-12-24T06:08:15.869Z,3.30
2022-12-24T06:09:15.829Z,3.80
2022-12-24T06:10:15.820Z,3.20
2022-12-24T06:11:15.826Z,3.10
2022-12-24T06:12:15.816Z,3.10
2022-12-24T06:13:15.800Z,3.00
2022-12-24T06:14:15.802Z,3.70
2022-12-24T06:15:21.933Z,3.20
2022-12-24T06:16:16.871Z,3.30
2022-12-24T06:17:15.723Z,2.80
2022-12-24T06:18:15.723Z,3.00
2022-12-24T06:19:15.707Z,3.50
2022-12-24T06:20:15.721Z,3.50
2022-12-24T06:21:15.695Z,3.60
2022-12-24T06:22:15.671Z,3.00
2022-12-24T06:23:15.643Z,2.90
2022-12-24T06:24:15.652Z,3.00
2022-12-24T06:25:15.656Z,3.90
2022-12-24T06:26:15.643Z,3.50
2022-12-24T06:27:15.604Z,3.30
2022-12-24T06:28:15.580Z,3.50
2022-12-24T06:29:15.574Z,3.10
2022-12-24T06:30:18.364Z,3.40
2022-12-24T06:31:15.603Z,3.80
2022-12-24T06:32:15.545Z,3.40
2022-12-24T06:33:15.516Z,3.40
2022-12-24T06:34:15.532Z,3.20
2022-12-24T06:35:15.501Z,3.90
2022-12-24T06:36:17.664Z,3.20
2022-12-24T06:37:15.464Z,2.80
2022-12-24T06:38:15.470Z,3.80
2022-12-24T06:39:15.465Z,3.00
2022-12-24T06:40:15.433Z,3.90
2022-12-24T06:41:15.434Z,3.50
2022-12-24T06:42:15.408Z,3.60
2022-12-24T06:43:15.397Z,3.20
2022-12-24T06:44:15.396Z,3.60
2022-12-24T06:45:15.384Z,2.90
2022-12-24T06:46:15.404Z,3.30
2022-12-24T06:47:15.354Z,3.90
2022-12-24T06:48:15.329Z,3.50
2022-12-24T06:49:15.331Z,3.30
2022-12-24T06:50:15.304Z,2.90
2022-12-24T06:51:15.302Z,3.10
2022-12-24T06:52:15.276Z,3.70
2022-12-24T06:53:15.250Z,3.20
2022-12-24T06:54:15.252Z,3.90
2022-12-24T06:55:15.238Z,3.30
2022-12-24T06:56:15.282Z,3.30
2022-12-24T06:57:15.197Z,3.60
2022-12-24T06:58:15.192Z,3.70
2022-12-24T06:59:15.186Z,3.90
2022-12-24T07:00:15.252Z,3.80
2022-12-24T07:01:15.355Z,4.30
2022-12-24T07:02:15.278Z,3.80
2022-12-24T07:03:15.183Z,3.60
2022-12-24T07:04:20.057Z,3.40
2022-12-24T07:05:16.089Z,3.40
2022-12-24T07:06:15.098Z,3.80
2022-12-24T07:07:15.059Z,3.70
2022-12-24T07:08:15.093Z,3.40
2022-12-24T07:09:15.036Z,4.00
2022-12-24T07:10:15.029Z,4.10
2022-12-24T07:11:15.027Z,3.70
2022-12-24T07:12:15.001Z,4.10
2022-12-24T07:13:14.989Z,3.90
2022-12-24T07:14:14.988Z,3.80
2022-12-24T07:15:14.976Z,4.30
2022-12-24T07:16:15.139Z,4.10
2022-12-24T07:17:15.099Z,4.40
2022-12-24T07:18:14.930Z,5.00
2022-12-24T07:19:15.450Z,4.40
2022-12-24T07:20:15.090Z,4.90
2022-12-24T07:21:14.909Z,4.90
2022-12-24T07:22:15.849Z,4.30
2022-12-24T07:23:14.852Z,5.40
2022-12-24T07:24:14.859Z,4.90
2022-12-24T07:25:14.851Z,4.60
2022-12-24T07:26:14.829Z,4.70
2022-12-24T07:27:14.789Z,4.60
2022-12-24T07:28:14.803Z,5.30
2022-12-24T07:29:14.795Z,4.00
2022-12-24T07:30:14.787Z,4.90
2022-12-24T07:31:14.816Z,4.20
2022-12-24T07:32:14.749Z,4.10
2022-12-24T07:33:14.736Z,4.10
2022-12-24T07:34:14.740Z,3.90
2022-12-24T07:35:14.715Z,4.40
2022-12-24T07:36:14.725Z,5.20
2022-12-24T07:37:14.716Z,4.50
2022-12-24T07:38:14.666Z,5.30
2022-12-24T07:39:14.662Z,4.60
2022-12-24T07:40:14.649Z,5.50
2022-12-24T07:41:14.660Z,5.80
2022-12-24T07:42:14.619Z,4.80
2022-12-24T07:43:14.594Z,4.60
2022-12-24T07:44:14.617Z,4.60
2022-12-24T07:45:14.572Z,4.20
2022-12-24T07:46:14.628Z,4.30
2022-12-24T07:47:14.549Z,4.20
2022-12-24T07:48:14.536Z,4.30
2022-12-24T07:49:14.534Z,4.10
2022-12-24T07:50:14.540Z,4.20
2022-12-24T07:51:14.512Z,4.20
2022-12-24T07:52:14.513Z,3.60
2022-12-24T07:53:14.496Z,4.50
2022-12-24T07:54:14.470Z,3.80
2022-12-24T07:55:14.470Z,4.40
2022-12-24T07:56:14.442Z,4.40
2022-12-24T07:57:14.420Z,4.00
2022-12-24T07:58:14.413Z,4.00
2022-12-24T07:59:14.404Z,3.90
2022-12-24T08:00:14.383Z,4.20
2022-12-24T08:01:14.413Z,4.10
2022-12-24T08:02:18.503Z,4.30
2022-12-24T08:03:14.438Z,4.60
2022-12-24T08:04:14.328Z,4.30
2022-12-24T08:05:14.329Z,3.80
2022-12-24T08:06:14.334Z,4.40
2022-12-24T08:07:14.279Z,4.50
2022-12-24T08:08:14.300Z,4.70
2022-12-24T08:09:14.316Z,4.70
2022-12-24T08:10:14.248Z,7.70
2022-12-24T08:11:14.254Z,3.90
2022-12-24T08:12:14.226Z,4.10
2022-12-24T08:13:14.238Z,4.50
2022-12-24T08:14:14.197Z,3.80
2022-12-24T08:15:14.187Z,4.20
2022-12-24T08:16:14.260Z,4.50
2022-12-24T08:17:14.186Z,4.60
2022-12-24T08:18:14.136Z,3.80
2022-12-24T08:19:14.134Z,4.30
2022-12-24T08:20:14.140Z,4.20
2022-12-24T08:21:14.119Z,4.10
2022-12-24T08:22:14.127Z,4.50
2022-12-24T08:23:14.082Z,4.70
2022-12-24T08:24:14.083Z,4.50
2022-12-24T08:25:14.081Z,4.60
2022-12-24T08:26:14.076Z,4.90
2022-12-24T08:27:14.072Z,4.50
2022-12-24T08:28:13.998Z,4.90
2022-12-24T08:29:13.998Z,5.00
2022-12-24T08:30:20.637Z,4.90
2022-12-24T08:31:15.039Z,4.50
2022-12-24T08:32:14.004Z,5.20
2022-12-24T08:33:13.943Z,4.10
2022-12-24T08:34:13.932Z,4.80
2022-12-24T08:35:13.938Z,6.10
2022-12-24T08:36:13.948Z,4.80
2022-12-24T08:37:13.920Z,4.50
2022-12-24T08:38:13.868Z,5.00
2022-12-24T08:39:13.868Z,5.20
2022-12-24T08:40:13.859Z,4.90
2022-12-24T08:41:13.878Z,4.20
2022-12-24T08:42:13.874Z,4.30
2022-12-24T08:43:13.806Z,4.40
2022-12-24T08:44:13.801Z,5.30
2022-12-24T08:45:13.822Z,4.60
2022-12-24T08:46:13.881Z,4.70
2022-12-24T08:47:13.770Z,4.50
2022-12-24T08:48:13.781Z,5.30
2022-12-24T08:49:13.741Z,5.40
2022-12-24T08:50:13.762Z,4.90
2022-12-24T08:51:13.712Z,4.30
2022-12-24T08:52:13.709Z,5.00
2022-12-24T08:53:13.719Z,4.90
2022-12-24T08:54:13.680Z,6.50
2022-12-24T08:55:13.652Z,4.50
2022-12-24T08:56:13.649Z,4.70
2022-12-24T08:57:13.647Z,7.00
2022-12-24T08:58:13.632Z,6.40
2022-12-24T08:59:13.607Z,6.00
2022-12-24T09:00:13.598Z,5.20
2022-12-24T09:01:13.619Z,4.80
2022-12-24T09:02:13.714Z,4.70
2022-12-24T09:03:14.402Z,5.30
2022-12-24T09:04:13.544Z,5.30
2022-12-24T09:05:13.520Z,5.10
2022-12-24T09:06:13.524Z,5.10
2022-12-24T09:07:13.506Z,4.90
2022-12-24T09:08:13.505Z,4.70
2022-12-24T09:09:13.484Z,5.30
2022-12-24T09:10:13.472Z,5.10
2022-12-24T09:11:13.491Z,5.40
2022-12-24T09:12:13.462Z,5.40
2022-12-24T09:13:13.434Z,4.90
2022-12-24T09:14:13.415Z,4.90
2022-12-24T09:15:13.404Z,4.70
2022-12-24T09:16:13.447Z,4.50
2022-12-24T09:17:13.389Z,4.90
2022-12-24T09:18:13.380Z,5.00
2022-12-24T09:19:13.334Z,4.80
2022-12-24T09:20:13.326Z,5.40
2022-12-24T09:21:13.339Z,5.10
2022-12-24T09:22:13.310Z,4.80
2022-12-24T09:23:13.299Z,5.10
2022-12-24T09:24:13.283Z,5.60
2022-12-24T09:25:13.267Z,5.60
2022-12-24T09:26:13.279Z,5.90
2022-12-24T09:27:13.237Z,5.40
2022-12-24T09:28:13.230Z,4.90
2022-12-24T09:29:13.217Z,5.50
2022-12-24T09:30:13.204Z,5.50
2022-12-24T09:31:13.271Z,5.30
2022-12-24T09:32:13.332Z,5.60
2022-12-24T09:33:13.148Z,5.30
2022-12-24T09:34:13.156Z,5.10
2022-12-24T09:35:13.148Z,5.70
2022-12-24T09:36:13.167Z,5.40
2022-12-24T09:37:13.135Z,5.40
2022-12-24T09:38:13.127Z,6.20
2022-12-24T09:39:13.111Z,6.40
2022-12-24T09:40:13.065Z,5.90
2022-12-24T09:41:13.075Z,5.80
2022-12-24T09:42:13.050Z,5.50
2022-12-24T09:43:13.032Z,5.30
2022-12-24T09:44:13.017Z,5.10
2022-12-24T09:45:12.998Z,5.50
2022-12-24T09:46:13.059Z,5.90
2022-12-24T09:47:12.972Z,4.80
2022-12-24T10:03:48.380Z,6.00
2022-12-24T10:04:48.286Z,5.40
2022-12-24T10:05:48.266Z,5.50
2022-12-24T10:06:48.271Z,5.00
2022-12-24T10:07:48.224Z,5.60
2022-12-24T10:08:48.218Z,5.70
2022-12-24T10:09:48.225Z,5.10
2022-12-24T10:10:48.223Z,5.60
2022-12-24T10:11:48.174Z,5.20
2022-12-24T10:12:49.968Z,5.40
2022-12-24T10:13:48.146Z,5.90
2022-12-24T10:14:48.154Z,6.00
2022-12-24T10:15:48.140Z,5.40
2022-12-24T10:16:48.183Z,7.40
2022-12-24T10:17:48.134Z,6.30
2022-12-24T10:18:49.640Z,5.30
2022-12-24T10:19:48.086Z,5.40
2022-12-24T10:20:48.074Z,6.10
2022-12-24T10:21:48.068Z,5.10
2022-12-24T10:22:48.038Z,5.00
2022-12-24T10:23:48.007Z,5.20
2022-12-24T10:24:50.649Z,6.20
2022-12-24T10:25:48.019Z,5.20
2022-12-24T10:26:47.998Z,5.40
2022-12-24T10:27:47.971Z,5.20
2022-12-24T10:28:47.951Z,5.70
2022-12-24T10:29:47.948Z,5.90
2022-12-24T10:30:47.964Z,5.50
2022-12-24T10:31:47.910Z,5.70
2022-12-24T10:32:47.915Z,5.30
2022-12-24T10:33:47.879Z,5.50
2022-12-24T10:34:47.896Z,6.20
2022-12-24T10:35:47.888Z,5.60
2022-12-24T10:36:47.884Z,5.70
2022-12-24T10:37:47.823Z,6.80
2022-12-24T10:38:47.834Z,5.40
2022-12-24T10:39:47.836Z,5.30
2022-12-24T10:40:47.799Z,5.60
2022-12-24T10:41:47.781Z,5.20
2022-12-24T10:42:51.314Z,5.60
2022-12-24T10:43:47.751Z,5.10
2022-12-24T10:44:47.765Z,4.50
2022-12-24T10:45:47.814Z,5.40
2022-12-24T10:46:47.754Z,5.40
2022-12-24T10:47:47.710Z,5.40
2022-12-24T10:48:50.760Z,5.20
2022-12-24T10:49:47.684Z,5.60
2022-12-24T10:50:47.689Z,5.30
2022-12-24T10:51:47.670Z,5.80
2022-12-24T10:52:47.632Z,5.80
2022-12-24T10:53:47.631Z,5.80
2022-12-24T10:54:47.624Z,4.90
2022-12-24T10:55:47.617Z,5.20
2022-12-24T10:56:47.604Z,4.70
2022-12-24T10:57:47.594Z,5.10
2022-12-24T10:58:47.571Z,5.10
2022-12-24T10:59:47.548Z,5.20
2022-12-24T11:00:47.565Z,5.30
2022-12-24T11:01:47.733Z,5.20
2022-12-24T11:02:47.705Z,5.00
2022-12-24T11:03:47.517Z,5.10
2022-12-24T11:04:47.474Z,5.10
2022-12-24T11:05:47.496Z,5.20
2022-12-24T11:06:49.276Z,5.20
2022-12-24T11:07:47.458Z,5.80
2022-12-24T11:08:47.453Z,5.70
2022-12-24T11:09:47.415Z,5.50
2022-12-24T11:10:47.424Z,5.10
2022-12-24T11:11:47.431Z,5.40
2022-12-24T11:13:05.754Z,4.80
2022-12-24T11:13:48.358Z,5.40
2022-12-24T11:14:47.374Z,4.80
2022-12-24T11:15:47.375Z,5.60
2022-12-24T11:16:47.344Z,5.30
2022-12-24T11:17:47.314Z,5.20
2022-12-24T11:18:51.190Z,5.60
2022-12-24T11:19:47.297Z,5.00
2022-12-24T11:20:47.274Z,5.40
2022-12-24T11:21:47.319Z,5.40
2022-12-24T11:22:47.266Z,5.50
2022-12-24T11:23:47.256Z,5.80
2022-12-24T11:24:50.203Z,4.80
2022-12-24T11:25:47.229Z,5.10
2022-12-24T11:26:47.214Z,5.00
2022-12-24T11:27:47.237Z,5.20
2022-12-24T11:28:47.203Z,5.40
2022-12-24T11:29:47.168Z,5.80
2022-12-24T11:30:47.212Z,5.90
2022-12-24T11:31:47.175Z,4.60
2022-12-24T11:32:47.156Z,4.80
2022-12-24T11:33:47.177Z,4.90
2022-12-24T11:34:47.135Z,5.70
2022-12-24T11:35:47.091Z,4.50
2022-12-24T11:36:47.088Z,5.10
2022-12-24T11:37:47.051Z,4.80
2022-12-24T11:38:47.037Z,4.50
2022-12-24T11:39:47.077Z,5.10
2022-12-24T11:40:47.025Z,4.90
2022-12-24T11:41:47.028Z,4.70
2022-12-24T11:42:46.996Z,4.60
2022-12-24T11:43:46.988Z,4.70
2022-12-24T11:44:46.996Z,4.90
2022-12-24T11:45:46.959Z,4.70
2022-12-24T11:46:47.065Z,5.20
2022-12-24T11:47:46.973Z,5.20
2022-12-24T11:48:46.917Z,5.50
2022-12-24T11:49:46.917Z,4.50
2022-12-24T11:50:46.894Z,4.80
2022-12-24T11:51:46.884Z,4.90
2022-12-24T11:52:46.890Z,4.70
2022-12-24T11:53:46.828Z,5.00
2022-12-24T11:54:46.838Z,4.70
2022-12-24T11:55:46.823Z,4.60
2022-12-24T11:56:46.820Z,4.70
2022-12-24T11:57:46.813Z,4.80
2022-12-24T11:58:46.777Z,4.90
2022-12-24T11:59:46.774Z,4.70
2022-12-24T12:00:46.751Z,4.40
2022-12-24T12:01:46.799Z,4.90
2022-12-24T12:02:46.779Z,4.30
2022-12-24T12:03:46.738Z,4.80
2022-12-24T12:04:46.709Z,5.00
2022-12-24T12:05:46.683Z,5.00
2022-12-24T12:06:46.679Z,4.90
2022-12-24T12:07:46.679Z,4.90
2022-12-24T12:08:46.650Z,4.90
2022-12-24T12:09:46.639Z,4.50
2022-12-24T12:10:46.623Z,4.80
2022-12-24T12:11:46.608Z,5.10
2022-12-24T12:12:46.602Z,5.70
2022-12-24T12:13:46.584Z,4.80
2022-12-24T12:14:46.602Z,5.00
2022-12-24T12:15:46.602Z,5.10
2022-12-24T12:16:46.614Z,5.20
2022-12-24T12:17:46.540Z,5.00
2022-12-24T12:18:46.522Z,5.20
2022-12-24T12:19:46.558Z,5.30
2022-12-24T12:20:46.481Z,4.70
2022-12-24T12:21:46.481Z,4.90
2022-12-24T12:22:46.465Z,5.10
2022-12-24T12:23:46.457Z,5.00
2022-12-24T12:24:46.421Z,5.40
2022-12-24T12:25:46.438Z,5.00
2022-12-24T12:26:46.426Z,4.90
2022-12-24T12:27:46.406Z,5.40
2022-12-24T12:28:46.379Z,5.10
2022-12-24T12:29:46.392Z,5.00
2022-12-24T12:30:46.355Z,5.80
2022-12-24T12:31:46.406Z,4.60
2022-12-24T12:32:46.380Z,5.50
2022-12-24T12:33:46.326Z,5.30
2022-12-24T12:34:46.314Z,5.90
2022-12-24T12:35:46.304Z,5.60
2022-12-24T12:36:46.294Z,5.80
2022-12-24T12:37:46.282Z,5.00
2022-12-24T12:38:46.296Z,5.30
2022-12-24T12:39:46.256Z,5.50
2022-12-24T12:40:46.233Z,4.90
2022-12-24T12:41:46.228Z,4.20
2022-12-24T12:42:46.215Z,5.40
2022-12-24T12:43:46.228Z,5.70
2022-12-24T12:44:46.195Z,5.30
2022-12-24T12:45:46.146Z,5.10
2022-12-24T12:46:46.187Z,5.30
2022-12-24T12:47:46.146Z,5.50
2022-12-24T12:48:46.154Z,5.20
2022-12-24T12:49:46.120Z,4.80
2022-12-24T12:50:46.076Z,5.10
2022-12-24T12:51:46.089Z,4.40
2022-12-24T12:52:46.084Z,4.90
2022-12-24T12:53:46.085Z,4.60
2022-12-24T12:54:46.055Z,5.00
2022-12-24T12:55:46.028Z,5.10
2022-12-24T12:56:46.030Z,4.90
2022-12-24T12:57:45.987Z,5.20
2022-12-24T12:58:46.014Z,5.10
2022-12-24T12:59:45.996Z,5.00
2022-12-24T13:00:45.977Z,5.60
2022-12-24T13:01:46.161Z,5.00
2022-12-24T13:02:46.110Z,4.90
2022-12-24T13:03:45.912Z,5.20
2022-12-24T13:04:45.920Z,5.20
2022-12-24T13:05:45.910Z,5.20
2022-12-24T13:06:45.912Z,4.40
2022-12-24T13:07:45.894Z,5.50
2022-12-24T13:08:45.847Z,4.60
2022-12-24T13:09:45.879Z,5.30
2022-12-24T13:10:45.864Z,6.40
2022-12-24T13:11:45.819Z,5.20
2022-12-24T13:12:45.822Z,5.10
2022-12-24T13:13:45.794Z,5.50
2022-12-24T13:14:45.780Z,5.90
2022-12-24T13:15:45.904Z,5.60
2022-12-24T13:16:45.867Z,5.00
2022-12-24T13:17:45.752Z,5.30
2022-12-24T13:18:45.720Z,4.90
2022-12-24T13:19:45.721Z,5.30
2022-12-24T13:20:45.691Z,5.40
2022-12-24T13:21:45.681Z,4.90
2022-12-24T13:22:45.662Z,4.80
2022-12-24T13:23:45.654Z,4.90
2022-12-24T13:24:51.277Z,5.20
2022-12-24T13:25:46.650Z,5.30
2022-12-24T13:26:45.611Z,4.70
2022-12-24T13:27:45.593Z,4.20
2022-12-24T13:28:45.613Z,4.70
2022-12-24T13:29:45.587Z,4.90
2022-12-24T13:30:45.563Z,6.50
2022-12-24T13:31:45.572Z,5.80
2022-12-24T13:32:45.533Z,5.70
2022-12-24T13:33:45.529Z,5.70
2022-12-24T13:34:45.522Z,4.80
2022-12-24T13:35:45.523Z,4.60
2022-12-24T13:36:45.494Z,5.10
2022-12-24T13:37:45.493Z,4.80
2022-12-24T13:38:45.466Z,11.70
2022-12-24T13:39:45.475Z,4.60
2022-12-24T13:40:45.444Z,4.60
2022-12-24T13:41:45.421Z,5.40
2022-12-24T13:42:45.402Z,5.40
2022-12-24T13:43:45.426Z,5.20
2022-12-24T13:44:45.384Z,5.10
2022-12-24T13:45:45.445Z,4.60